createdAt,value
2023-12-08T00:00:52.840Z,-4.27
2023-12-08T00:03:19.883Z,-4.20
2023-12-08T00:05:46.628Z,-4.13
2023-12-08T00:08:13.430Z,-4.20
2023-12-08T00:10:40.040Z,-4.25
2023-12-08T00:13:06.631Z,-4.19
2023-12-08T00:15:33.340Z,-4.03
2023-12-08T00:17:59.968Z,-3.96
2023-12-08T00:20:27.109Z,-4.05
2023-12-08T00:22:53.909Z,-4.04
2023-12-08T00:25:20.584Z,-3.97
2023-12-08T00:27:47.256Z,-4.09
2023-12-08T00:30:14.203Z,-4.25
2023-12-08T00:32:40.990Z,-4.35
2023-12-08T00:35:08.445Z,-4.38
2023-12-08T00:37:35.920Z,-4.41
2023-12-08T00:40:03.498Z,-4.52
2023-12-08T00:42:30.061Z,-4.55
2023-12-08T00:44:56.797Z,-4.57
2023-12-08T00:47:23.799Z,-4.57
2023-12-08T00:49:50.635Z,-4.49
2023-12-08T00:52:17.301Z,-4.49
2023-12-08T00:54:43.947Z,-4.50
2023-12-08T00:57:10.565Z,-4.48
2023-12-08T00:59:37.317Z,-4.48
2023-12-08T01:02:04.092Z,-4.48
2023-12-08T01:04:30.717Z,-4.43
2023-12-08T01:06:57.353Z,-4.40
2023-12-08T01:09:23.920Z,-4.42
2023-12-08T01:11:50.540Z,-4.43
2023-12-08T01:14:17.589Z,-4.36
2023-12-08T01:16:44.774Z,-4.39
2023-12-08T01:19:12.687Z,-4.30
2023-12-08T01:21:45.576Z,-4.21
2023-12-08T01:24:13.311Z,-4.20
2023-12-08T01:26:46.344Z,-4.21
2023-12-08T01:29:25.089Z,-4.11
2023-12-08T01:31:51.734Z,-4.07
2023-12-08T01:34:19.200Z,-4.11
2023-12-08T01:36:51.818Z,-4.14
2023-12-08T01:39:18.614Z,-4.10
2023-12-08T01:41:45.239Z,-4.25
2023-12-08T01:44:11.882Z,-4.40
2023-12-08T01:46:38.913Z,-4.40
2023-12-08T01:49:07.138Z,-4.31
2023-12-08T01:51:34.577Z,-4.18
2023-12-08T01:54:01.497Z,-4.26
2023-12-08T01:56:28.518Z,-4.22
2023-12-08T01:58:55.620Z,-4.33
2023-12-08T02:01:22.343Z,-4.32
2023-12-08T02:03:51.809Z,-4.41
2023-12-08T02:06:20.874Z,-4.45
2023-12-08T02:08:51.139Z,-4.44
2023-12-08T02:11:18.679Z,-4.34
2023-12-08T02:13:46.159Z,-4.39
2023-12-08T02:16:56.869Z,-4.57
2023-12-08T02:19:24.239Z,-4.56
2023-12-08T02:21:51.122Z,-4.63
2023-12-08T02:24:20.820Z,-4.67
2023-12-08T02:26:49.233Z,-4.67
2023-12-08T02:29:16.454Z,-4.71
2023-12-08T02:31:52.993Z,-4.80
2023-12-08T02:34:22.966Z,-4.90
2023-12-08T02:36:51.198Z,-4.98
2023-12-08T02:39:19.058Z,-5.10
2023-12-08T02:41:45.764Z,-5.10
2023-12-08T02:44:12.478Z,-5.12
2023-12-08T02:46:40.572Z,-5.20
2023-12-08T02:49:07.307Z,-5.37
2023-12-08T02:51:34.049Z,-5.37
2023-12-08T02:54:00.756Z,-5.36
2023-12-08T02:56:27.350Z,-5.37
2023-12-08T02:58:54.859Z,-5.38
2023-12-08T03:01:21.516Z,-5.51
2023-12-08T03:03:48.231Z,-5.58
2023-12-08T03:06:15.008Z,-5.70
2023-12-08T03:08:41.711Z,-5.61
2023-12-08T03:11:08.294Z,-5.77
2023-12-08T03:13:34.863Z,-5.85
2023-12-08T03:16:01.511Z,-5.85
2023-12-08T03:18:28.178Z,-6.01
2023-12-08T03:20:54.820Z,-6.01
2023-12-08T03:23:21.448Z,-6.25
2023-12-08T03:25:48.056Z,-6.24
2023-12-08T03:28:14.635Z,-6.38
2023-12-08T03:30:41.293Z,-6.31
2023-12-08T03:33:07.993Z,-6.22
2023-12-08T03:35:34.709Z,-6.06
2023-12-08T03:38:01.389Z,-5.97
2023-12-08T03:40:27.946Z,-5.86
2023-12-08T03:42:54.525Z,-5.86
2023-12-08T03:45:21.397Z,-5.70
2023-12-08T03:47:48.208Z,-5.55
2023-12-08T03:50:14.979Z,-5.49
2023-12-08T03:52:41.560Z,-5.46
2023-12-08T03:55:08.517Z,-5.39
2023-12-08T03:57:35.161Z,-5.44
2023-12-08T04:00:01.871Z,-5.49
2023-12-08T04:02:28.668Z,-5.39
2023-12-08T04:04:55.289Z,-5.45
2023-12-08T04:07:21.999Z,-5.44
2023-12-08T04:09:48.637Z,-5.43
2023-12-08T04:12:15.234Z,-5.49
2023-12-08T04:14:43.455Z,-5.52
2023-12-08T04:17:11.222Z,-5.66
2023-12-08T04:19:38.448Z,-5.57
2023-12-08T04:22:05.212Z,-5.36
2023-12-08T04:24:31.826Z,-5.29
2023-12-08T04:26:58.440Z,-5.16
2023-12-08T04:29:25.062Z,-5.11
2023-12-08T04:31:51.642Z,-5.09
2023-12-08T04:34:18.402Z,-5.20
2023-12-08T04:36:45.992Z,-5.31
2023-12-08T04:39:12.679Z,-5.39
2023-12-08T04:41:39.441Z,-5.40
2023-12-08T04:44:06.061Z,-5.40
2023-12-08T04:46:32.648Z,-5.37
2023-12-08T04:48:59.355Z,-5.59
2023-12-08T04:51:26.110Z,-5.84
2023-12-08T04:53:58.216Z,-5.85
2023-12-08T04:56:24.789Z,-5.93
2023-12-08T04:58:51.636Z,-5.82
2023-12-08T05:01:18.284Z,-5.75
2023-12-08T05:03:45.029Z,-5.66
2023-12-08T05:06:11.880Z,-5.54
2023-12-08T05:08:40.109Z,-5.41
2023-12-08T05:11:07.384Z,-5.38
2023-12-08T05:13:34.435Z,-5.40
2023-12-08T05:16:01.134Z,-5.63
2023-12-08T05:18:27.883Z,-5.75
2023-12-08T05:20:54.627Z,-5.79
2023-12-08T05:23:21.336Z,-5.93
2023-12-08T05:25:47.952Z,-5.91
2023-12-08T05:28:14.733Z,-5.92
2023-12-08T05:30:41.304Z,-5.88
2023-12-08T05:33:08.121Z,-5.90
2023-12-08T05:35:34.791Z,-5.91
2023-12-08T05:38:01.437Z,-5.98
2023-12-08T05:40:27.996Z,-5.97
2023-12-08T05:42:54.585Z,-5.92
2023-12-08T05:45:21.410Z,-5.85
2023-12-08T05:47:48.228Z,-5.71
2023-12-08T05:50:15.032Z,-5.60
2023-12-08T05:52:41.805Z,-5.45
2023-12-08T05:55:08.743Z,-5.32
2023-12-08T05:57:35.434Z,-5.06
2023-12-08T06:00:02.648Z,-4.88
2023-12-08T06:02:29.271Z,-5.06
2023-12-08T06:04:55.886Z,-5.00
2023-12-08T06:07:22.556Z,-4.94
2023-12-08T06:09:49.271Z,-4.94
2023-12-08T06:12:15.999Z,-4.91
2023-12-08T06:14:42.670Z,-4.79
2023-12-08T06:17:09.257Z,-4.72
2023-12-08T06:19:35.937Z,-4.62
2023-12-08T06:22:02.630Z,-4.54
2023-12-08T06:24:29.446Z,-4.57
2023-12-08T06:26:56.170Z,-4.62
2023-12-08T06:29:22.822Z,-4.75
2023-12-08T06:31:49.461Z,-4.78
2023-12-08T06:34:17.232Z,-4.74
2023-12-08T06:36:49.381Z,-4.65
2023-12-08T06:39:18.887Z,-4.62
2023-12-08T06:41:45.956Z,-4.57
2023-12-08T06:44:12.683Z,-4.61
2023-12-08T06:46:39.425Z,-4.71
2023-12-08T06:49:06.509Z,-4.68
2023-12-08T06:51:37.117Z,-4.71
2023-12-08T06:54:05.056Z,-4.76
2023-12-08T06:56:31.735Z,-4.67
2023-12-08T06:59:00.874Z,-4.58
2023-12-08T07:01:29.503Z,-4.54
2023-12-08T07:03:56.238Z,-4.41
2023-12-08T07:06:23.845Z,-4.31
2023-12-08T07:08:50.648Z,-4.29
2023-12-08T07:11:18.566Z,-4.29
2023-12-08T07:13:45.120Z,-4.30
2023-12-08T07:16:11.954Z,-4.32
2023-12-08T07:18:38.947Z,-4.24
2023-12-08T07:21:06.301Z,-4.15
2023-12-08T07:23:33.454Z,-4.07
2023-12-08T07:26:01.124Z,-3.97
2023-12-08T07:28:27.735Z,-3.82
2023-12-08T07:30:54.353Z,-3.75
2023-12-08T07:33:22.125Z,-3.69
2023-12-08T07:35:49.006Z,-3.61
2023-12-08T07:38:15.606Z,-3.51
2023-12-08T07:40:42.188Z,-3.45
2023-12-08T07:43:08.831Z,-3.50
2023-12-08T07:45:35.535Z,-3.43
2023-12-08T07:48:02.309Z,-3.34
2023-12-08T07:50:28.929Z,-3.35
2023-12-08T07:52:55.618Z,-3.36
2023-12-08T07:55:22.226Z,-3.19
2023-12-08T07:57:48.825Z,-3.11
2023-12-08T08:00:15.941Z,-3.09
2023-12-08T08:02:42.655Z,-3.04
2023-12-08T08:05:09.473Z,-2.94
2023-12-08T08:07:36.192Z,-2.92
2023-12-08T08:10:03.592Z,-2.82
2023-12-08T08:12:33.245Z,-2.80
2023-12-08T08:14:59.980Z,-3.02
2023-12-08T08:17:26.841Z,-3.28
2023-12-08T08:19:53.612Z,-3.56
2023-12-08T08:22:30.023Z,-3.75
2023-12-08T08:25:00.415Z,-3.68
2023-12-08T08:27:27.530Z,-3.67
2023-12-08T08:29:54.598Z,-3.58
2023-12-08T08:32:21.322Z,-3.44
2023-12-08T08:34:47.979Z,-3.32
2023-12-08T08:37:14.674Z,-3.25
2023-12-08T08:39:41.798Z,-3.15
2023-12-08T08:42:08.476Z,-3.21
2023-12-08T08:44:35.153Z,-3.06
2023-12-08T08:47:01.775Z,-3.02
2023-12-08T08:49:28.805Z,-2.97
2023-12-08T08:51:55.557Z,-2.99
2023-12-08T08:54:22.327Z,-3.00
2023-12-08T08:56:48.973Z,-2.96
2023-12-08T08:59:15.731Z,-2.96
2023-12-08T09:01:43.369Z,-2.94
2023-12-08T09:04:10.505Z,-2.97
2023-12-08T09:06:37.374Z,-2.99
2023-12-08T09:09:05.588Z,-2.88
2023-12-08T09:11:32.253Z,-2.95
2023-12-08T09:13:58.859Z,-2.75
2023-12-08T09:16:31.192Z,-2.68
2023-12-08T09:18:57.991Z,-2.48
2023-12-08T09:21:24.668Z,-2.35
2023-12-08T09:23:51.271Z,-2.38
2023-12-08T09:26:17.910Z,-2.14
2023-12-08T09:28:44.519Z,-2.20
2023-12-08T09:31:11.096Z,-2.15
2023-12-08T09:33:37.983Z,-2.10
2023-12-08T09:36:05.328Z,-2.02
2023-12-08T09:38:34.509Z,-1.91
2023-12-08T09:41:05.641Z,-1.94
2023-12-08T09:43:57.315Z,-1.77
2023-12-08T09:46:24.706Z,-1.63
2023-12-08T09:48:53.116Z,-1.51
2023-12-08T09:51:20.609Z,-1.42
2023-12-08T09:53:49.546Z,-1.38
2023-12-08T09:56:17.627Z,-1.29
2023-12-08T09:58:46.523Z,-1.25
2023-12-08T10:01:15.104Z,-1.35
2023-12-08T10:03:42.315Z,-1.45
2023-12-08T10:06:11.211Z,-1.41
2023-12-08T10:08:38.388Z,-1.27
2023-12-08T10:11:06.974Z,-1.27
2023-12-08T10:13:34.199Z,-1.18
2023-12-08T10:16:01.252Z,-1.37
2023-12-08T10:18:29.879Z,-1.38
2023-12-08T10:21:20.557Z,-1.28
2023-12-08T10:23:48.040Z,-1.30
2023-12-08T10:26:16.684Z,-1.35
2023-12-08T10:28:44.262Z,-1.41
2023-12-08T10:31:10.957Z,-1.30
2023-12-08T10:33:37.716Z,-1.26
2023-12-08T10:36:04.825Z,-1.34
2023-12-08T10:38:31.579Z,-1.59
2023-12-08T10:40:58.205Z,-1.56
2023-12-08T10:43:26.715Z,-1.60
2023-12-08T10:45:54.401Z,-1.60
2023-12-08T10:48:22.468Z,-1.52
2023-12-08T10:50:53.927Z,-1.58
2023-12-08T10:53:22.298Z,-1.61
2023-12-08T10:56:10.763Z,-1.60
2023-12-08T10:58:43.208Z,-1.62
2023-12-08T11:01:14.329Z,-1.61
2023-12-08T11:03:54.143Z,-1.57
2023-12-08T11:06:34.996Z,-1.58
2023-12-08T11:09:07.655Z,-1.51
2023-12-08T11:11:39.048Z,-1.44
2023-12-08T11:14:14.305Z,-1.52
2023-12-08T11:16:50.318Z,-1.48
2023-12-08T11:19:20.333Z,-1.43
2023-12-08T11:21:47.833Z,-1.44
2023-12-08T11:24:15.079Z,-1.58
2023-12-08T11:27:07.794Z,-1.68
2023-12-08T11:29:59.306Z,-1.58
2023-12-08T11:32:39.541Z,-1.49
2023-12-08T11:35:13.480Z,-1.61
2023-12-08T11:37:42.146Z,-1.68
2023-12-08T11:40:12.433Z,-1.62
2023-12-08T11:42:40.726Z,-1.57
2023-12-08T11:45:12.071Z,-1.58
2023-12-08T11:47:39.106Z,-1.47
2023-12-08T11:50:06.698Z,-1.39
2023-12-08T11:52:34.889Z,-1.37
2023-12-08T11:55:17.454Z,-1.30
2023-12-08T11:58:04.291Z,-1.23
2023-12-08T12:00:32.805Z,-1.10
2023-12-08T12:03:00.465Z,-1.06
2023-12-08T12:05:27.787Z,-0.92
2023-12-08T12:07:56.080Z,-0.94
2023-12-08T12:10:27.166Z,-0.95
2023-12-08T12:12:59.199Z,-1.03
2023-12-08T12:15:26.950Z,-1.10
2023-12-08T12:17:53.973Z,-1.08
2023-12-08T12:20:21.141Z,-1.06
2023-12-08T12:22:47.782Z,-0.89
2023-12-08T12:25:14.457Z,-1.02
2023-12-08T12:27:46.323Z,-1.03
2023-12-08T12:30:13.735Z,-1.13
2023-12-08T12:32:41.363Z,-1.18
2023-12-08T12:35:08.924Z,-1.14
2023-12-08T12:37:35.988Z,-0.97
2023-12-08T12:40:02.630Z,-0.96
2023-12-08T12:42:29.462Z,-1.03
2023-12-08T12:44:56.129Z,-1.04
2023-12-08T12:47:27.715Z,-0.98
2023-12-08T12:50:08.644Z,-0.98
2023-12-08T12:52:41.615Z,-1.01
2023-12-08T12:55:30.381Z,-1.02
2023-12-08T12:57:57.052Z,-1.11
2023-12-08T13:00:35.778Z,-1.14
2023-12-08T13:03:10.637Z,-1.14
2023-12-08T13:05:48.011Z,-1.15
2023-12-08T13:08:16.969Z,-1.15
2023-12-08T13:10:45.451Z,-1.21
2023-12-08T13:13:13.531Z,-1.18
2023-12-08T13:15:41.205Z,-1.26
2023-12-08T13:18:08.349Z,-1.30
2023-12-08T13:20:41.903Z,-1.18
2023-12-08T13:23:08.952Z,-1.15
2023-12-08T13:25:35.630Z,-1.15
2023-12-08T13:28:02.343Z,-1.16
2023-12-08T13:30:29.259Z,-1.17
2023-12-08T13:32:56.968Z,-1.17
2023-12-08T13:35:23.963Z,-1.15
2023-12-08T13:37:50.875Z,-1.15
2023-12-08T13:40:17.575Z,-1.16
2023-12-08T13:42:44.550Z,-1.12
2023-12-08T13:45:11.414Z,-1.10
2023-12-08T13:47:38.124Z,-1.13
2023-12-08T13:50:05.373Z,-1.15
2023-12-08T13:52:32.019Z,-1.08
2023-12-08T13:54:58.675Z,-1.14
2023-12-08T13:57:25.805Z,-1.16
2023-12-08T13:59:53.821Z,-1.17
2023-12-08T14:02:20.814Z,-1.20
2023-12-08T14:04:47.546Z,-1.08
2023-12-08T14:07:14.426Z,-1.10
2023-12-08T14:09:42.816Z,-1.16
2023-12-08T14:12:10.599Z,-1.23
2023-12-08T14:14:37.607Z,-1.28
2023-12-08T14:17:04.815Z,-1.33
2023-12-08T14:19:31.533Z,-1.40
2023-12-08T14:21:59.763Z,-1.33
2023-12-08T14:24:27.045Z,-1.33
2023-12-08T14:26:57.258Z,-1.37
2023-12-08T14:29:24.037Z,-1.38
2023-12-08T14:31:50.861Z,-1.70
2023-12-08T14:34:17.707Z,-1.71
2023-12-08T14:36:46.483Z,-1.78
2023-12-08T14:39:13.156Z,-1.89
2023-12-08T14:41:40.121Z,-1.89
2023-12-08T14:44:06.715Z,-1.91
2023-12-08T14:46:34.520Z,-2.00
2023-12-08T14:49:01.609Z,-2.05
2023-12-08T14:51:28.415Z,-2.15
2023-12-08T14:53:55.583Z,-2.08
2023-12-08T14:56:22.293Z,-2.10
2023-12-08T14:58:49.166Z,-2.10
2023-12-08T15:01:18.606Z,-2.11
2023-12-08T15:03:46.261Z,-2.06
2023-12-08T15:06:16.157Z,-2.13
2023-12-08T15:08:43.507Z,-2.19
2023-12-08T15:11:10.942Z,-2.23
2023-12-08T15:13:37.788Z,-2.22
2023-12-08T15:16:04.933Z,-2.24
2023-12-08T15:18:31.769Z,-2.20
2023-12-08T15:21:00.195Z,-2.21
2023-12-08T15:23:32.998Z,-2.22
2023-12-08T15:26:00.403Z,-2.20
2023-12-08T15:28:27.051Z,-2.20
2023-12-08T15:30:53.672Z,-2.20
2023-12-08T15:33:22.214Z,-2.16
2023-12-08T15:35:49.206Z,-2.13
2023-12-08T15:38:15.921Z,-2.13
2023-12-08T15:40:43.071Z,-2.07
2023-12-08T15:43:09.792Z,-2.08
2023-12-08T15:45:39.650Z,-2.06
2023-12-08T15:48:06.438Z,-2.09
2023-12-08T15:50:33.186Z,-2.02
2023-12-08T15:53:00.190Z,-1.97
2023-12-08T15:55:26.782Z,-2.00
2023-12-08T15:57:53.875Z,-2.00
2023-12-08T16:00:21.140Z,-1.97
2023-12-08T16:02:48.037Z,-1.98
2023-12-08T16:05:14.830Z,-2.01
2023-12-08T16:07:42.957Z,-2.10
2023-12-08T16:10:10.587Z,-2.08
2023-12-08T16:12:37.337Z,-2.13
2023-12-08T16:15:05.042Z,-2.15
2023-12-08T16:17:32.231Z,-2.13
2023-12-08T16:19:58.916Z,-2.22
2023-12-08T16:22:25.737Z,-2.22
2023-12-08T16:24:52.474Z,-2.26
2023-12-08T16:27:19.123Z,-2.35
2023-12-08T16:29:46.478Z,-2.36
2023-12-08T16:32:13.949Z,-2.40
2023-12-08T16:34:40.857Z,-2.41
2023-12-08T16:37:07.802Z,-2.44
2023-12-08T16:39:34.964Z,-2.41
2023-12-08T16:42:01.846Z,-2.40
2023-12-08T16:44:28.620Z,-2.43
2023-12-08T16:46:55.407Z,-2.38
2023-12-08T16:49:22.644Z,-2.41
2023-12-08T16:51:51.183Z,-2.44
2023-12-08T16:54:18.402Z,-2.45
2023-12-08T16:56:45.266Z,-2.40
2023-12-08T16:59:11.955Z,-2.45
2023-12-08T17:01:39.122Z,-2.47
2023-12-08T17:04:05.900Z,-2.38
2023-12-08T17:06:33.526Z,-2.41
2023-12-08T17:09:00.420Z,-2.39
2023-12-08T17:11:27.044Z,-2.34
2023-12-08T17:13:55.080Z,-2.33
2023-12-08T17:16:22.009Z,-2.29
2023-12-08T17:18:48.758Z,-2.22
2023-12-08T17:21:15.497Z,-2.14
2023-12-08T17:23:42.108Z,-2.09
2023-12-08T17:26:08.804Z,-1.96
2023-12-08T17:28:35.470Z,-2.02
2023-12-08T17:31:02.188Z,-1.91
2023-12-08T17:33:28.858Z,-1.91
2023-12-08T17:35:55.573Z,-1.93
2023-12-08T17:38:22.284Z,-1.97
2023-12-08T17:40:49.950Z,-1.96
2023-12-08T17:43:16.644Z,-1.96
2023-12-08T17:45:43.351Z,-2.04
2023-12-08T17:48:10.240Z,-2.01
2023-12-08T17:50:36.909Z,-2.03
2023-12-08T17:53:03.483Z,-2.05
2023-12-08T17:55:30.127Z,-2.03
2023-12-08T17:57:56.762Z,-1.97
2023-12-08T18:00:24.507Z,-1.87
2023-12-08T18:02:55.967Z,-2.00
2023-12-08T18:05:22.924Z,-1.92
2023-12-08T18:07:49.575Z,-1.94
2023-12-08T18:10:16.303Z,-1.93
2023-12-08T18:12:43.310Z,-1.85
2023-12-08T18:15:10.545Z,-1.85
2023-12-08T18:17:40.289Z,-1.92
2023-12-08T18:20:07.952Z,-1.73
2023-12-08T18:22:35.188Z,-1.81
2023-12-08T18:25:01.779Z,-1.83
2023-12-08T18:27:39.816Z,-1.82
2023-12-08T18:30:15.664Z,-1.83
2023-12-08T18:32:43.226Z,-1.80
2023-12-08T18:35:10.028Z,-1.69
2023-12-08T18:37:36.681Z,-1.68
2023-12-08T18:40:04.554Z,-1.73
2023-12-08T18:42:31.612Z,-1.80
2023-12-08T18:44:58.499Z,-1.78
2023-12-08T18:47:25.239Z,-1.76
2023-12-08T18:49:51.987Z,-1.78
2023-12-08T18:52:18.754Z,-1.85
2023-12-08T18:54:45.369Z,-1.77
2023-12-08T18:57:14.741Z,-1.73
2023-12-08T18:59:41.903Z,-1.63
2023-12-08T19:02:08.721Z,-1.57
2023-12-08T19:04:35.482Z,-1.57
2023-12-08T19:07:05.204Z,-1.74
2023-12-08T19:09:32.052Z,-1.72
2023-12-08T19:12:01.071Z,-1.73
2023-12-08T19:14:29.542Z,-1.77
2023-12-08T19:16:56.232Z,-1.96
2023-12-08T19:19:25.152Z,-1.95
2023-12-08T19:21:51.741Z,-1.79
2023-12-08T19:24:18.695Z,-1.88
2023-12-08T19:26:45.431Z,-1.86
2023-12-08T19:29:12.127Z,-1.78
2023-12-08T19:31:38.840Z,-1.77
2023-12-08T19:34:05.910Z,-1.76
2023-12-08T19:36:32.746Z,-1.79
2023-12-08T19:39:01.049Z,-1.73
2023-12-08T19:41:28.168Z,-1.77
2023-12-08T19:43:55.796Z,-1.68
2023-12-08T19:46:22.500Z,-1.62
2023-12-08T19:48:49.269Z,-1.63
2023-12-08T19:51:16.145Z,-1.63
2023-12-08T19:53:43.047Z,-1.54
2023-12-08T19:56:10.155Z,-1.47
2023-12-08T19:58:36.839Z,-1.50
2023-12-08T20:01:06.314Z,-1.44
2023-12-08T20:03:33.429Z,-1.48
2023-12-08T20:06:00.570Z,-1.58
2023-12-08T20:08:28.348Z,-1.51
2023-12-08T20:10:57.890Z,-1.44
2023-12-08T20:13:24.633Z,-1.46
2023-12-08T20:15:51.297Z,-1.51
2023-12-08T20:18:18.201Z,-1.48
2023-12-08T20:20:44.888Z,-1.51
2023-12-08T20:23:12.611Z,-1.44
2023-12-08T20:25:39.942Z,-1.54
2023-12-08T20:28:06.757Z,-1.43
2023-12-08T20:30:34.789Z,-1.32
2023-12-08T20:33:02.897Z,-1.47
2023-12-08T20:35:29.581Z,-1.53
2023-12-08T20:37:56.571Z,-1.35
2023-12-08T20:40:23.166Z,-1.51
2023-12-08T20:42:49.964Z,-1.54
2023-12-08T20:45:16.807Z,-1.40
2023-12-08T20:47:43.694Z,-1.50
2023-12-08T20:50:10.739Z,-1.64
2023-12-08T20:52:37.543Z,-1.57
2023-12-08T20:55:04.718Z,-1.63
2023-12-08T20:57:31.550Z,-1.59
2023-12-08T20:59:58.268Z,-1.58
2023-12-08T21:02:25.051Z,-1.56
2023-12-08T21:04:52.022Z,-1.57
2023-12-08T21:07:18.852Z,-1.55
2023-12-08T21:09:45.491Z,-1.31
2023-12-08T21:12:12.558Z,-1.47
2023-12-08T21:14:39.219Z,-1.39
2023-12-08T21:17:05.854Z,-1.28
2023-12-08T21:19:32.757Z,-1.28
2023-12-08T21:22:02.626Z,-1.31
2023-12-08T21:24:29.615Z,-1.24
2023-12-08T21:26:56.257Z,-1.37
2023-12-08T21:29:23.983Z,-1.48
2023-12-08T21:31:52.250Z,-1.54
2023-12-08T21:34:19.000Z,-1.52
2023-12-08T21:36:45.867Z,-1.43
2023-12-08T21:39:12.673Z,-1.39
2023-12-08T21:41:39.387Z,-1.47
2023-12-08T21:44:07.721Z,-1.46
2023-12-08T21:46:34.783Z,-1.56
2023-12-08T21:49:01.972Z,-1.46
2023-12-08T21:51:30.789Z,-1.40
2023-12-08T21:53:57.853Z,-1.49
2023-12-08T21:56:29.562Z,-1.50
2023-12-08T21:58:58.577Z,-1.52
2023-12-08T22:01:25.521Z,-1.63
2023-12-08T22:03:52.831Z,-1.54
2023-12-08T22:06:19.547Z,-1.59
2023-12-08T22:08:46.497Z,-1.46
2023-12-08T22:11:13.094Z,-1.38
2023-12-08T22:13:39.974Z,-1.35
2023-12-08T22:16:07.028Z,-1.35
2023-12-08T22:18:34.008Z,-1.30
2023-12-08T22:21:00.844Z,-1.14
2023-12-08T22:23:28.125Z,-1.24
2023-12-08T22:25:54.703Z,-1.28
2023-12-08T22:28:24.175Z,-1.37
2023-12-08T22:30:50.878Z,-1.40
2023-12-08T22:33:17.620Z,-1.37
2023-12-08T22:35:44.458Z,-1.37
2023-12-08T22:38:12.241Z,-1.25
2023-12-08T22:40:38.867Z,-1.26
2023-12-08T22:43:05.531Z,-1.39
2023-12-08T22:45:34.010Z,-1.41
2023-12-08T22:48:01.128Z,-1.33
2023-12-08T22:50:35.433Z,-1.30
2023-12-08T22:53:05.601Z,-1.30
2023-12-08T22:55:32.177Z,-1.18
2023-12-08T22:57:58.966Z,-1.21
2023-12-08T23:00:25.747Z,-1.27
2023-12-08T23:02:53.209Z,-1.34
2023-12-08T23:05:20.393Z,-1.28
2023-12-08T23:07:47.124Z,-1.18
2023-12-08T23:10:14.134Z,-1.26
2023-12-08T23:12:41.429Z,-1.22
2023-12-08T23:15:09.441Z,-1.08
2023-12-08T23:17:37.196Z,-1.16
2023-12-08T23:20:04.315Z,-1.32
2023-12-08T23:22:30.911Z,-1.31
2023-12-08T23:24:57.539Z,-1.31
2023-12-08T23:27:24.173Z,-1.31
2023-12-08T23:29:50.840Z,-1.29
2023-12-08T23:32:17.439Z,-1.25
2023-12-08T23:34:44.423Z,-1.18
2023-12-08T23:37:11.239Z,-1.16
2023-12-08T23:39:39.523Z,-1.19
2023-12-08T23:42:06.805Z,-1.14
2023-12-08T23:44:33.675Z,-1.12
2023-12-08T23:47:00.740Z,-1.07
2023-12-08T23:49:27.544Z,-1.00
2023-12-08T23:51:54.244Z,-1.06
2023-12-08T23:54:20.936Z,-1.09
2023-12-08T23:56:47.507Z,-1.05
2023-12-08T23:59:14.439Z,-1.11
